Sao Joao d'Alianca, Brazil
Current Conditions -  °F | °C
As of 8:00 PM on Thursday 27 Nov 2014 (Local Time) from SBBR Reporting Station
Light Rain Light Rain  
Wind Chill: 72°   Ceiling: 8000
Heat Index: 72°   Visibility: 4mi
Dew Point: 64°   Wind: 0mph
Humidity: 78%   Direction: NA
Pressure: 30"   Gusts: NA
Location:  14.71°S, 47.52°W
Report Text: SBBR 272200Z 00000KT 7000 -RA FEW020 BKN080 22/18 Q1016
Loading
Personal Weather Stations






























Interactive Weather Map New forecast layout! Learn more

10-Day Weather Forecast

Advertisements
Track Severe Weather on mobile